sensor_id;sensor_type;location;lat;lon;timestamp;pressure;altitude;pressure_sealevel;temperature;humidity
47712;BME280;57457;51.634;5.886;2023-04-06T00:11:32;101500;;;1.8;84.1
47712;BME280;57457;51.634;5.886;2023-04-06T00:24:52;101500;;;1.7;84.4
47712;BME280;57457;51.634;5.886;2023-04-06T00:38:13;101500;;;1.5;84.7
47712;BME280;57457;51.634;5.886;2023-04-06T00:51:33;101500;;;1.4;84.8
47712;BME280;57457;51.634;5.886;2023-04-06T01:04:54;101500;;;1.3;84.8
47712;BME280;57457;51.634;5.886;2023-04-06T01:18:16;101500;;;1.3;84.9
47712;BME280;57457;51.634;5.886;2023-04-06T01:31:36;101500;;;1.1;85.0
47712;BME280;57457;51.634;5.886;2023-04-06T01:44:55;101500;;;1.0;85.1
47712;BME280;57457;51.634;5.886;2023-04-06T01:58:17;101500;;;0.9;85.3
47712;BME280;57457;51.634;5.886;2023-04-06T02:11:38;101400;;;0.8;85.5
47712;BME280;57457;51.634;5.886;2023-04-06T02:38:19;101400;;;0.7;85.7
47712;BME280;57457;51.634;5.886;2023-04-06T02:51:41;101400;;;0.6;86.0
47712;BME280;57457;51.634;5.886;2023-04-06T03:05:01;101400;;;0.7;86.0
47712;BME280;57457;51.634;5.886;2023-04-06T03:18:22;101400;;;0.7;86.0
47712;BME280;57457;51.634;5.886;2023-04-06T03:31:42;101400;;;0.9;86.0
47712;BME280;57457;51.634;5.886;2023-04-06T03:45:03;101400;;;1.0;86.0
47712;BME280;57457;51.634;5.886;2023-04-06T03:58:25;101400;;;1.2;85.8
47712;BME280;57457;51.634;5.886;2023-04-06T04:11:46;101400;;;1.3;85.4
47712;BME280;57457;51.634;5.886;2023-04-06T04:25:06;101300;;;1.5;85.5
47712;BME280;57457;51.634;5.886;2023-04-06T04:38:27;101300;;;1.6;85.2
47712;BME280;57457;51.634;5.886;2023-04-06T04:51:47;101400;;;1.8;84.7
47712;BME280;57457;51.634;5.886;2023-04-06T05:05:07;101400;;;1.9;84.8
47712;BME280;57457;51.634;5.886;2023-04-06T05:18:27;101300;;;2.0;84.7
47712;BME280;57457;51.634;5.886;2023-04-06T05:31:48;101300;;;2.2;84.7
47712;BME280;57457;51.634;5.886;2023-04-06T05:45:08;101300;;;2.4;84.2
47712;BME280;57457;51.634;5.886;2023-04-06T05:58:29;101300;;;2.8;83.8
47712;BME280;57457;51.634;5.886;2023-04-06T06:11:50;101300;;;3.2;82.6
47712;BME280;57457;51.634;5.886;2023-04-06T06:25:12;101300;;;3.7;79.2
47712;BME280;57457;51.634;5.886;2023-04-06T06:38:33;101300;;;4.5;74.2
47712;BME280;57457;51.634;5.886;2023-04-06T06:51:53;101300;;;5.4;70.9
47712;BME280;57457;51.634;5.886;2023-04-06T07:05:13;101300;;;6.0;69.9
47712;BME280;57457;51.634;5.886;2023-04-06T07:18:34;101300;;;6.5;69.9
47712;BME280;57457;51.634;5.886;2023-04-06T07:31:56;101300;;;6.9;65.9
47712;BME280;57457;51.634;5.886;2023-04-06T07:45:15;101300;;;7.4;65.9
47712;BME280;57457;51.634;5.886;2023-04-06T07:58:35;101300;;;7.7;65.5
47712;BME280;57457;51.634;5.886;2023-04-06T08:11:55;101300;;;8.0;65.4
47712;BME280;57457;51.634;5.886;2023-04-06T08:25:16;101300;;;8.2;62.8
47712;BME280;57457;51.634;5.886;2023-04-06T08:38:36;101300;;;8.5;63.5
47712;BME280;57457;51.634;5.886;2023-04-06T08:51:57;101300;;;8.9;62.5
47712;BME280;57457;51.634;5.886;2023-04-06T09:05:17;101300;;;9.4;61.0
47712;BME280;57457;51.634;5.886;2023-04-06T09:18:39;101300;;;9.8;62.5
47712;BME280;57457;51.634;5.886;2023-04-06T09:32:00;101300;;;10.2;59.1
47712;BME280;57457;51.634;5.886;2023-04-06T09:45:20;101300;;;10.6;60.0
47712;BME280;57457;51.634;5.886;2023-04-06T09:58:41;101300;;;10.7;61.3
47712;BME280;57457;51.634;5.886;2023-04-06T10:12:01;101300;;;10.7;61.7
47712;BME280;57457;51.634;5.886;2023-04-06T10:25:22;101300;;;10.8;61.1
47712;BME280;57457;51.634;5.886;2023-04-06T10:38:44;101300;;;11.0;60.8
47712;BME280;57457;51.634;5.886;2023-04-06T10:52:03;101300;;;11.5;62.0
47712;BME280;57457;51.634;5.886;2023-04-06T11:05:25;101300;;;11.8;63.6
47712;BME280;57457;51.634;5.886;2023-04-06T11:18:46;101300;;;11.7;67.0
47712;BME280;57457;51.634;5.886;2023-04-06T11:32:06;101300;;;11.3;71.9
47712;BME280;57457;51.634;5.886;2023-04-06T11:45:27;101300;;;11.1;72.2
47712;BME280;57457;51.634;5.886;2023-04-06T11:58:47;101300;;;10.8;75.6
47712;BME280;57457;51.634;5.886;2023-04-06T12:12:09;101300;;;10.6;77.9
47712;BME280;57457;51.634;5.886;2023-04-06T12:25:29;101300;;;10.2;80.8
47712;BME280;57457;51.634;5.886;2023-04-06T12:38:50;101300;;;9.8;81.9
47712;BME280;57457;51.634;5.886;2023-04-06T12:52:11;101300;;;9.5;82.2
47712;BME280;57457;51.634;5.886;2023-04-06T13:05:33;101300;;;9.4;82.6
47712;BME280;57457;51.634;5.886;2023-04-06T13:18:53;101300;;;9.3;82.6
47712;BME280;57457;51.634;5.886;2023-04-06T13:32:12;101300;;;9.3;81.9
47712;BME280;57457;51.634;5.886;2023-04-06T13:45:34;101200;;;9.3;82.9
47712;BME280;57457;51.634;5.886;2023-04-06T13:58:55;101200;;;9.2;83.0
47712;BME280;57457;51.634;5.886;2023-04-06T14:12:16;101200;;;9.2;82.8
47712;BME280;57457;51.634;5.886;2023-04-06T14:25:36;101200;;;9.4;83.0
47712;BME280;57457;51.634;5.886;2023-04-06T14:38:58;101200;;;9.3;83.5
47712;BME280;57457;51.634;5.886;2023-04-06T15:05:40;101200;;;9.1;84.9
47712;BME280;57457;51.634;5.886;2023-04-06T15:19:02;101200;;;9.1;85.2
47712;BME280;57457;51.634;5.886;2023-04-06T15:32:23;101200;;;9.0;85.6
47712;BME280;57457;51.634;5.886;2023-04-06T15:45:45;101200;;;9.0;86.0
47712;BME280;57457;51.634;5.886;2023-04-06T15:59:04;101200;;;9.0;86.4
47712;BME280;57457;51.634;5.886;2023-04-06T16:12:26;101100;;;9.0;86.6
47712;BME280;57457;51.634;5.886;2023-04-06T16:25:47;101100;;;8.9;86.9
47712;BME280;57457;51.634;5.886;2023-04-06T16:39:08;101100;;;8.9;87.1
47712;BME280;57457;51.634;5.886;2023-04-06T16:52:30;101100;;;8.8;87.5
47712;BME280;57457;51.634;5.886;2023-04-06T17:05:51;101100;;;8.8;88.0
47712;BME280;57457;51.634;5.886;2023-04-06T17:19:12;101100;;;8.7;88.3
47712;BME280;57457;51.634;5.886;2023-04-06T17:32:32;101100;;;8.7;88.4
47712;BME280;57457;51.634;5.886;2023-04-06T17:45:52;101100;;;8.6;88.5
47712;BME280;57457;51.634;5.886;2023-04-06T17:59:12;101100;;;8.6;88.6
47712;BME280;57457;51.634;5.886;2023-04-06T18:12:33;101100;;;8.6;88.7
47712;BME280;57457;51.634;5.886;2023-04-06T18:25:55;101100;;;8.6;88.6
47712;BME280;57457;51.634;5.886;2023-04-06T18:39:16;101100;;;8.7;88.7
47712;BME280;57457;51.634;5.886;2023-04-06T18:52:38;101100;;;8.7;88.7
47712;BME280;57457;51.634;5.886;2023-04-06T19:05:59;101100;;;8.8;88.6
47712;BME280;57457;51.634;5.886;2023-04-06T19:19:19;101100;;;8.8;88.7
47712;BME280;57457;51.634;5.886;2023-04-06T19:32:39;101100;;;8.8;88.8
47712;BME280;57457;51.634;5.886;2023-04-06T19:46:00;101100;;;8.9;88.7
47712;BME280;57457;51.634;5.886;2023-04-06T19:59:21;101100;;;9.0;88.7
47712;BME280;57457;51.634;5.886;2023-04-06T20:12:43;101100;;;9.0;88.7
47712;BME280;57457;51.634;5.886;2023-04-06T20:26:04;101100;;;9.1;88.7
47712;BME280;57457;51.634;5.886;2023-04-06T20:39:25;101100;;;9.1;89.0
47712;BME280;57457;51.634;5.886;2023-04-06T20:52:45;101100;;;9.1;89.1
47712;BME280;57457;51.634;5.886;2023-04-06T21:06:07;101100;;;9.1;89.3
47712;BME280;57457;51.634;5.886;2023-04-06T21:19:26;101100;;;9.2;89.3
47712;BME280;57457;51.634;5.886;2023-04-06T21:32:46;101100;;;9.2;89.1
47712;BME280;57457;51.634;5.886;2023-04-06T21:46:06;101100;;;9.3;88.7
47712;BME280;57457;51.634;5.886;2023-04-06T21:59:27;101100;;;9.5;88.5
47712;BME280;57457;51.634;5.886;2023-04-06T22:12:47;101100;;;9.6;88.4
47712;BME280;57457;51.634;5.886;2023-04-06T22:39:27;101100;;;9.8;88.8
47712;BME280;57457;51.634;5.886;2023-04-06T22:52:48;101100;;;9.9;88.8
47712;BME280;57457;51.634;5.886;2023-04-06T23:06:10;101100;;;10.0;88.8
47712;BME280;57457;51.634;5.886;2023-04-06T23:19:31;101100;;;10.0;88.7
47712;BME280;57457;51.634;5.886;2023-04-06T23:32:52;101100;;;10.0;88.6
47712;BME280;57457;51.634;5.886;2023-04-06T23:46:12;101100;;;10.1;88.1
47712;BME280;57457;51.634;5.886;2023-04-06T23:59:32;101100;;;10.1;87.6
